Time,TemperatureF,DewpointF,PressureIn,WindDirection,WindDirectionDegrees,WindSpeedMPH,WindSpeedGustMPH,Humidity,HourlyPrecipIn,Conditions,Clouds,dailyrainin,SoftwareType,DateUTC
2013-01-21 00:21:00,44.3,44.0,30.15,SW,235,0.0,-999.0,97,-99.99,,,0.00,weatherlink.com 1.10,2013-01-21 06:21:00,
2013-01-21 00:51:00,44.1,44.0,30.14,SW,235,0.0,-999.0,98,-99.99,,,0.00,weatherlink.com 1.10,2013-01-21 06:51:00,
2013-01-21 01:06:00,44.1,44.0,30.14,SW,235,0.0,-999.0,98,-99.99,,,0.00,weatherlink.com 1.10,2013-01-21 07:06:00,
2013-01-21 01:21:00,43.9,43.0,30.14,SW,235,0.0,-999.0,98,-99.99,,,0.00,weatherlink.com 1.10,2013-01-21 07:21:00,
2013-01-21 01:51:00,43.5,43.0,30.14,SW,235,0.0,-999.0,98,-99.99,,,0.00,weatherlink.com 1.10,2013-01-21 07:51:00,
2013-01-21 02:22:00,43.3,43.0,30.14,SW,235,0.0,-999.0,98,-99.99,,,0.00,weatherlink.com 1.10,2013-01-21 08:22:00,
2013-01-21 02:51:00,43.1,43.0,30.14,SW,235,0.0,-999.0,98,-99.99,,,0.00,weatherlink.com 1.10,2013-01-21 08:51:00,
2013-01-21 03:06:00,42.9,42.0,30.14,SW,235,0.0,-999.0,98,-99.99,,,0.00,weatherlink.com 1.10,2013-01-21 09:06:00,
2013-01-21 03:36:00,42.7,42.0,30.14,SW,235,0.0,-999.0,98,-99.99,,,0.00,weatherlink.com 1.10,2013-01-21 09:36:00,
2013-01-21 03:51:00,42.5,42.0,30.14,SW,235,0.0,-999.0,98,-99.99,,,0.00,weatherlink.com 1.10,2013-01-21 09:51:00,
2013-01-21 04:06:00,42.3,42.0,30.14,SW,235,0.0,-999.0,98,-99.99,,,0.00,weatherlink.com 1.10,2013-01-21 10:06:00,
2013-01-21 04:21:00,41.9,41.0,30.14,SW,235,0.0,-999.0,98,-99.99,,,0.00,weatherlink.com 1.10,2013-01-21 10:21:00,
2013-01-21 04:37:00,41.6,41.0,30.14,SW,235,0.0,-999.0,98,-99.99,,,0.00,weatherlink.com 1.10,2013-01-21 10:37:00,
2013-01-21 04:51:00,41.3,41.0,30.14,SW,235,0.0,-999.0,98,-99.99,,,0.00,weatherlink.com 1.10,2013-01-21 10:51:00,
2013-01-21 05:07:00,41.1,41.0,30.14,SW,235,0.0,-999.0,98,-99.99,,,0.00,weatherlink.com 1.10,2013-01-21 11:07:00,
2013-01-21 05:22:00,41.0,41.0,30.14,SW,235,0.0,-999.0,98,-99.99,,,0.00,weatherlink.com 1.10,2013-01-21 11:22:00,
2013-01-21 05:53:00,40.7,40.0,30.15,SW,235,0.0,-999.0,98,-99.99,,,0.00,weatherlink.com 1.10,2013-01-21 11:53:00,
2013-01-21 06:07:00,40.6,40.0,30.15,SW,235,0.0,-999.0,98,-99.99,,,0.00,weatherlink.com 1.10,2013-01-21 12:07:00,
2013-01-21 06:22:00,40.4,40.0,30.15,SW,235,0.0,-999.0,98,-99.99,,,0.00,weatherlink.com 1.10,2013-01-21 12:22:00,
2013-01-21 06:37:00,40.2,40.0,30.16,SW,235,0.0,-999.0,98,-99.99,,,0.00,weatherlink.com 1.10,2013-01-21 12:37:00,
2013-01-21 06:52:00,40.1,40.0,30.16,SW,235,0.0,-999.0,98,-99.99,,,0.00,weatherlink.com 1.10,2013-01-21 12:52:00,
2013-01-21 07:07:00,40.1,40.0,30.16,SW,235,0.0,-999.0,98,-99.99,,,0.00,weatherlink.com 1.10,2013-01-21 13:07:00,
2013-01-21 07:22:00,40.5,40.0,30.17,SW,235,0.0,-999.0,99,-99.99,,,0.00,weatherlink.com 1.10,2013-01-21 13:22:00,
2013-01-21 07:37:00,41.0,41.0,30.18,SW,235,0.0,-999.0,99,-99.99,,,0.00,weatherlink.com 1.10,2013-01-21 13:37:00,
2013-01-21 07:52:00,42.2,42.0,30.18,SW,235,0.0,-999.0,99,-99.99,,,0.00,weatherlink.com 1.10,2013-01-21 13:52:00,
2013-01-21 08:07:00,43.3,43.0,30.19,SW,235,0.0,-999.0,100,-99.99,,,0.00,weatherlink.com 1.10,2013-01-21 14:07:00,
2013-01-21 08:22:00,45.2,45.0,30.20,SW,235,0.0,-999.0,100,-99.99,,,0.00,weatherlink.com 1.10,2013-01-21 14:22:00,
2013-01-21 08:37:00,46.8,47.0,30.20,SW,235,0.0,-999.0,100,-99.99,,,0.00,weatherlink.com 1.10,2013-01-21 14:37:00,
2013-01-21 08:52:00,48.1,48.0,30.21,SW,236,0.0,-999.0,100,-99.99,,,0.00,weatherlink.com 1.10,2013-01-21 14:52:00,
2013-01-21 09:07:00,49.2,49.0,30.21,SW,234,0.0,-999.0,100,-99.99,,,0.00,weatherlink.com 1.10,2013-01-21 15:07:00,
2013-01-21 09:22:00,50.1,50.0,30.22,SW,234,0.0,-999.0,100,-99.99,,,0.00,weatherlink.com 1.10,2013-01-21 15:22:00,
2013-01-21 09:37:00,51.1,51.0,30.21,North,5,0.0,-999.0,98,-99.99,,,0.00,weatherlink.com 1.10,2013-01-21 15:37:00,
2013-01-21 09:53:00,53.0,48.0,30.21,NE,47,0.0,-999.0,84,-99.99,,,0.00,weatherlink.com 1.10,2013-01-21 15:53:00,
2013-01-21 10:09:00,54.9,49.0,30.21,North,5,0.0,-999.0,80,-99.99,,,0.00,weatherlink.com 1.10,2013-01-21 16:09:00,
2013-01-21 10:23:00,56.4,48.0,30.21,NE,44,0.0,-999.0,74,-99.99,,,0.00,weatherlink.com 1.10,2013-01-21 16:23:00,
2013-01-21 10:38:00,58.0,48.0,30.20,North,5,0.0,-999.0,69,-99.99,,,0.00,weatherlink.com 1.10,2013-01-21 16:38:00,
2013-01-21 10:53:00,59.5,48.0,30.20,North,351,0.0,-999.0,65,-99.99,,,0.00,weatherlink.com 1.10,2013-01-21 16:53:00,
2013-01-21 11:08:00,61.0,48.0,30.19,NNE,32,1.0,-999.0,62,-99.99,,,0.00,weatherlink.com 1.10,2013-01-21 17:08:00,
2013-01-21 11:23:00,62.5,48.0,30.18,ENE,78,0.0,-999.0,60,-99.99,,,0.00,weatherlink.com 1.10,2013-01-21 17:23:00,
2013-01-21 11:38:00,64.1,48.0,30.18,NNE,18,1.0,-999.0,57,-99.99,,,0.00,weatherlink.com 1.10,2013-01-21 17:38:00,
2013-01-21 11:54:00,64.7,48.0,30.17,NE,52,1.0,-999.0,55,-99.99,,,0.00,weatherlink.com 1.10,2013-01-21 17:54:00,
2013-01-21 12:08:00,64.9,48.0,30.16,ENE,57,0.0,-999.0,55,-99.99,,,0.00,weatherlink.com 1.10,2013-01-21 18:08:00,
2013-01-21 12:23:00,65.6,49.0,30.16,NNW,346,5.0,-999.0,55,-99.99,,,0.00,weatherlink.com 1.10,2013-01-21 18:23:00,
2013-01-21 12:38:00,66.3,49.0,30.15,NW,313,0.0,-999.0,54,-99.99,,,0.00,weatherlink.com 1.10,2013-01-21 18:38:00,
2013-01-21 12:53:00,66.9,49.0,30.15,ENE,62,0.0,-999.0,53,-99.99,,,0.00,weatherlink.com 1.10,2013-01-21 18:53:00,
2013-01-21 13:09:00,67.3,48.0,30.14,North,9,0.0,-999.0,50,-99.99,,,0.00,weatherlink.com 1.10,2013-01-21 19:09:00,
2013-01-21 13:24:00,67.1,48.0,30.14,NW,324,0.0,-999.0,50,-99.99,,,0.00,weatherlink.com 1.10,2013-01-21 19:24:00,
2013-01-21 13:38:00,67.3,48.0,30.14,NE,53,0.0,-999.0,50,-99.99,,,0.00,weatherlink.com 1.10,2013-01-21 19:38:00,
2013-01-21 13:54:00,67.2,48.0,30.14,NNW,343,2.0,-999.0,50,-99.99,,,0.00,weatherlink.com 1.10,2013-01-21 19:54:00,
2013-01-21 14:09:00,67.0,48.0,30.14,NNW,329,0.0,-999.0,50,-99.99,,,0.00,weatherlink.com 1.10,2013-01-21 20:09:00,
2013-01-21 14:24:00,67.3,49.0,30.13,NNW,333,2.0,-999.0,52,-99.99,,,0.00,weatherlink.com 1.10,2013-01-21 20:24:00,
2013-01-21 14:39:00,67.4,48.0,30.13,NW,323,5.0,-999.0,51,-99.99,,,0.00,weatherlink.com 1.10,2013-01-21 20:39:00,
2013-01-21 14:54:00,67.3,48.0,30.13,NW,315,0.0,-999.0,51,-99.99,,,0.00,weatherlink.com 1.10,2013-01-21 20:54:00,
2013-01-21 15:09:00,67.2,50.0,30.14,North,5,1.0,-999.0,54,-99.99,,,0.00,weatherlink.com 1.10,2013-01-21 21:09:00,
2013-01-21 15:24:00,67.1,48.0,30.14,ENE,57,0.0,-999.0,50,-99.99,,,0.00,weatherlink.com 1.10,2013-01-21 21:24:00,
2013-01-21 15:38:00,67.0,48.0,30.14,NNW,342,0.0,-999.0,50,-99.99,,,0.00,weatherlink.com 1.10,2013-01-21 21:38:00,
2013-01-21 15:53:00,66.8,47.0,30.14,NNW,332,0.0,-999.0,50,-99.99,,,0.00,weatherlink.com 1.10,2013-01-21 21:53:00,
2013-01-21 16:08:00,66.0,46.0,30.14,North,360,1.0,-999.0,49,-99.99,,,0.00,weatherlink.com 1.10,2013-01-21 22:08:00,
2013-01-21 16:23:00,65.3,47.0,30.15,NNE,26,0.0,-999.0,52,-99.99,,,0.00,weatherlink.com 1.10,2013-01-21 22:23:00,
2013-01-21 16:38:00,64.9,47.0,30.15,NNW,332,2.0,-999.0,53,-99.99,,,0.00,weatherlink.com 1.10,2013-01-21 22:38:00,
2013-01-21 17:08:00,62.7,47.0,30.16,NE,34,0.0,-999.0,56,-99.99,,,0.00,weatherlink.com 1.10,2013-01-21 23:08:00,
2013-01-21 17:23:00,61.6,46.0,30.17,NE,34,0.0,-999.0,58,-99.99,,,0.00,weatherlink.com 1.10,2013-01-21 23:23:00,
2013-01-21 17:38:00,60.3,47.0,30.17,NE,34,0.0,-999.0,62,-99.99,,,0.00,weatherlink.com 1.10,2013-01-21 23:38:00,
2013-01-21 17:53:00,58.7,47.0,30.17,NE,34,0.0,-999.0,65,-99.99,,,0.00,weatherlink.com 1.10,2013-01-21 23:53:00,
2013-01-21 18:09:00,57.3,46.0,30.17,NE,34,0.0,-999.0,67,-99.99,,,0.00,weatherlink.com 1.10,2013-01-22 00:09:00,
2013-01-21 18:24:00,56.2,47.0,30.18,NE,34,0.0,-999.0,70,-99.99,,,0.00,weatherlink.com 1.10,2013-01-22 00:24:00,
2013-01-21 18:39:00,55.1,47.0,30.18,NE,34,0.0,-999.0,74,-99.99,,,0.00,weatherlink.com 1.10,2013-01-22 00:39:00,
2013-01-21 18:54:00,54.1,47.0,30.18,North,360,1.0,-999.0,76,-99.99,,,0.00,weatherlink.com 1.10,2013-01-22 00:54:00,
2013-01-21 19:09:00,53.5,47.0,30.18,North,360,0.0,-999.0,79,-99.99,,,0.00,weatherlink.com 1.10,2013-01-22 01:09:00,
2013-01-21 19:24:00,53.0,47.0,30.19,North,360,0.0,-999.0,79,-99.99,,,0.00,weatherlink.com 1.10,2013-01-22 01:24:00,
2013-01-21 19:39:00,52.6,47.0,30.19,North,360,0.0,-999.0,81,-99.99,,,0.00,weatherlink.com 1.10,2013-01-22 01:39:00,
2013-01-21 19:54:00,52.2,47.0,30.20,North,360,0.0,-999.0,81,-99.99,,,0.00,weatherlink.com 1.10,2013-01-22 01:54:00,
2013-01-21 20:10:00,52.2,47.0,30.20,North,360,0.0,-999.0,82,-99.99,,,0.00,weatherlink.com 1.10,2013-01-22 02:10:00,
2013-01-21 20:24:00,52.3,47.0,30.20,North,360,0.0,-999.0,81,-99.99,,,0.00,weatherlink.com 1.10,2013-01-22 02:24:00,
2013-01-21 20:39:00,52.4,47.0,30.20,North,360,0.0,-999.0,81,-99.99,,,0.00,weatherlink.com 1.10,2013-01-22 02:39:00,
2013-01-21 20:54:00,53.0,47.0,30.20,North,5,0.0,-999.0,80,-99.99,,,0.00,weatherlink.com 1.10,2013-01-22 02:54:00,
2013-01-21 21:09:00,53.2,47.0,30.20,ENE,72,0.0,-999.0,80,-99.99,,,0.00,weatherlink.com 1.10,2013-01-22 03:09:00,
2013-01-21 21:24:00,53.0,47.0,30.21,NE,54,0.0,-999.0,80,-99.99,,,0.00,weatherlink.com 1.10,2013-01-22 03:24:00,
2013-01-21 21:39:00,52.9,47.0,30.21,NE,53,0.0,-999.0,80,-99.99,,,0.00,weatherlink.com 1.10,2013-01-22 03:39:00,
2013-01-21 21:54:00,53.1,47.0,30.20,NE,54,1.0,-999.0,80,-99.99,,,0.00,weatherlink.com 1.10,2013-01-22 03:54:00,
2013-01-21 22:09:00,52.9,47.0,30.20,NE,53,1.0,-999.0,80,-99.99,,,0.00,weatherlink.com 1.10,2013-01-22 04:09:00,
2013-01-21 22:24:00,52.0,46.0,30.21,NE,44,3.0,-999.0,81,-99.99,,,0.00,weatherlink.com 1.10,2013-01-22 04:24:00,
2013-01-21 22:39:00,51.3,46.0,30.20,NE,44,0.0,-999.0,82,-99.99,,,0.00,weatherlink.com 1.10,2013-01-22 04:39:00,
2013-01-21 22:54:00,51.1,46.0,30.20,NNE,31,0.0,-999.0,83,-99.99,,,0.00,weatherlink.com 1.10,2013-01-22 04:54:00,
2013-01-21 23:09:00,51.0,47.0,30.20,NE,35,0.0,-999.0,85,-99.99,,,0.00,weatherlink.com 1.10,2013-01-22 05:09:00,
2013-01-21 23:24:00,51.0,46.0,30.20,NNE,19,0.0,-999.0,84,-99.99,,,0.00,weatherlink.com 1.10,2013-01-22 05:24:00,
2013-01-21 23:39:00,50.9,46.0,30.20,NNE,22,0.0,-999.0,83,-99.99,,,0.00,weatherlink.com 1.10,2013-01-22 05:39:00,
2013-01-21 23:54:00,50.8,46.0,30.20,NE,55,0.0,-999.0,83,-99.99,,,0.00,weatherlink.com 1.10,2013-01-22 05:54:00,